Latest Weather Observations for Pearce

IDW60901

Issued at 5:21 am WST Tuesday 4 August 2020 (issued every 10 minutes, with the page automatically refreshed every 10 minutes)

About weather observations | Map of Perth area stations | Latest observations for Perth area | Other Formats
Station Details ID: 009053 Name: PEARCE RAAF Lat: -31.67 Lon: 116.02 Height: 40.0 m
Data from the previous 72 hours. | See also: Recent months at Pearce
Date/Time
WST
Temp
°C
App
Temp
°C
Dew
Point
°C
Rel
Hum
%
Delta-T
°C
Wind Press
QNH
hPa
Press
MSL
hPa
Rain since
9am
mm
Dir  Spd
km/h
Gust
km/h
Spd
kts
Gust
kts
04/05:00am 6.4 4.1 5.7 95 0.3 SSE 7 9 4 5 1008.6 1008.6 13.0
04/04:40am 6.2 3.0 5.3 94 0.4 SSW 11 13 6 7 1008.4 1008.4 13.0
04/04:30am 6.3 3.6 5.4 94 0.4 SSW 9 11 5 6 1008.2 1008.2 13.0
04/04:00am 6.8 4.2 5.9 94 0.4 S 9 9 5 5 1007.9 1007.9 13.0
04/03:56am 6.8 4.5 5.9 94 0.4 S 7 9 4 5 1008.0 1008.0 13.0
04/03:43am 7.4 4.9 6.5 94 0.4 S 9 13 5 7 1008.0 1008.0 13.0
04/03:30am 8.0 4.5 7.2 95 0.4 SE 15 19 8 10 1008.0 1008.0 13.0
04/03:00am 7.9 4.7 7.0 94 0.4 S 13 17 7 9 1007.9 1007.9 13.0
04/02:49am 7.7 4.5 6.8 94 0.4 S 13 15 7 8 1007.8 1007.8 13.0
04/02:34am 7.2 4.3 6.3 94 0.4 S 11 13 6 7 1008.0 1008.0 13.0
04/02:30am 7.7 4.9 6.8 94 0.4 S 11 13 6 7 1007.9 1007.9 13.0
04/02:00am 8.4 5.4 7.5 94 0.4 S 13 17 7 9 1008.0 1008.0 13.0
04/01:30am 8.3 4.8 7.4 94 0.4 S 15 19 8 10 1007.9 1007.9 13.0
04/01:27am 8.2 5.1 7.3 94 0.4 S 13 17 7 9 1007.8 1007.8 13.0
04/01:00am 7.4 4.8 6.2 92 0.5 SSW 9 13 5 7 1007.5 1007.5 13.0
04/12:30am 7.2 4.2 6.0 92 0.5 SSW 11 13 6 7 1007.2 1007.2 13.0
04/12:00am 8.0 5.6 6.8 92 0.6 S 9 13 5 7 1007.0 1007.0 13.0
 
Date/Time
WST
Temp
°C
App
Temp
°C
Dew
Point
°C
Rel
Hum
%
Delta-T
°C
Wind Press
QNH
hPa
Press
MSL
hPa
Rain since
9am
mm
Dir  Spd
km/h
Gust
km/h
Spd
kts
Gust
kts
03/11:30pm 8.2 5.8 6.8 91 0.6 SSE 9 13 5 7 1007.1 1007.1 13.0
03/11:00pm 9.2 6.9 7.6 90 0.8 SSW 9 13 5 7 1007.1 1007.1 13.0
03/10:30pm 9.4 6.8 7.8 90 0.8 SSE 11 17 6 9 1007.0 1007.0 13.0
03/10:00pm 10.3 7.5 8.4 88 0.9 SE 13 17 7 9 1007.1 1007.1 13.0
03/09:30pm 10.3 7.9 8.7 90 0.8 S 11 15 6 8 1007.3 1007.3 13.0
03/09:00pm 10.1 7.7 8.5 90 0.8 SE 11 13 6 7 1007.0 1007.0 13.0
03/08:30pm 10.2 7.4 8.6 90 0.8 ESE 13 17 7 9 1006.8 1006.8 13.0
03/08:00pm 10.4 7.7 8.8 90 0.8 NE 13 19 7 10 1006.6 1006.6 12.6
03/07:30pm 10.4 6.5 8.7 89 0.8 NNE 19 28 10 15 1006.2 1006.2 12.0
03/07:00pm 10.7 7.3 9.0 89 0.8 NNE 17 20 9 11 1006.4 1006.4 11.2
03/06:30pm 10.9 8.6 9.0 88 0.9 NNE 11 13 6 7 1006.4 1006.4 10.8
03/06:00pm 11.1 7.7 9.0 87 1.0 NNE 17 22 9 12 1006.0 1006.0 10.4
03/05:30pm 11.2 7.2 9.1 87 1.0 NNE 20 28 11 15 1005.8 1005.8 10.4
03/05:00pm 11.2 6.9 9.3 88 1.0 NE 22 33 12 18 1006.1 1006.1 9.8
03/04:59pm 11.2 6.9 9.3 88 1.0 NE 22 33 12 18 1006.0 1006.0 9.8
03/04:31pm 11.3 7.5 9.2 87 1.1 NNE 19 28 10 15 1006.2 1006.2 8.6
03/04:30pm 11.3 7.5 9.0 86 1.1 NNE 19 28 10 15 1006.2 1006.2 8.6
03/04:00pm 11.5 7.7 9.1 85 1.2 NE 19 24 10 13 1006.4 1006.4 8.2
03/03:48pm 11.2 7.8 9.3 88 1.0 NE 17 26 9 14 1006.6 1006.6 8.2
03/03:30pm 10.5 7.4 8.8 89 0.8 NE 15 22 8 12 1007.1 1007.1 8.0
03/03:00pm 10.9 7.4 8.8 87 1.0 NE 17 24 9 13 1007.3 1007.3 5.6
03/02:59pm 11.0 7.5 8.9 87 1.0 NE 17 24 9 13 1007.4 1007.4 5.6
03/02:55pm 11.0 7.5 8.8 86 1.1 NE 17 24 9 13 1007.5 1007.5 5.2
03/02:45pm 11.2 7.8 9.1 87 1.0 NE 17 20 9 11 1007.6 1007.6 4.8
03/02:30pm 11.3 8.8 8.3 82 1.5 NE 11 15 6 8 1007.8 1007.8 4.0
03/02:00pm 11.2 8.4 8.6 84 1.3 NNE 13 17 7 9 1008.0 1008.0 3.2
03/01:30pm 11.9 8.1 7.6 75 2.1 N 17 26 9 14 1008.5 1008.5 3.0
03/01:00pm 13.1 10.9 9.2 77 2.0 NE 11 15 6 8 1008.8 1008.8 2.8
03/12:30pm 11.0 8.1 8.1 82 1.4 N 13 15 7 8 1009.3 1009.3 2.8
03/12:00pm 10.4 7.0 7.8 84 1.3 NE 15 17 8 9 1009.9 1009.9 2.6
03/11:30am 10.2 8.0 8.0 86 1.1 ENE 9 13 5 7 1011.0 1011.0 2.2
03/11:13am 9.6 6.9 7.5 87 1.0 SSE 11 17 6 9 1011.2 1011.2 2.2
03/11:00am 10.6 7.9 9.0 90 0.8 WNW 13 19 7 10 1011.4 1011.4 1.6
03/10:53am 10.6 6.8 8.9 89 0.8 NW 19 22 10 12 1011.2 1011.2 1.4
03/10:30am 11.3 6.9 8.9 85 1.2 NNW 22 26 12 14 1010.6 1010.6 0.2
03/10:00am 12.9 10.1 8.6 75 2.2 NNW 13 17 7 9 1010.8 1010.8 0.0
03/09:30am 12.4 9.5 9.6 83 1.4 N 15 19 8 10 1010.6 1010.6 0.0
03/09:00am 11.2 8.5 9.1 87 1.0 N 13 17 7 9 1010.7 1010.7 4.2
03/08:30am 10.1 7.7 8.5 90 0.8 N 11 15 6 8 1010.8 1010.8 4.2
03/08:00am 8.8 6.5 7.6 92 0.6 NNE 9 11 5 6 1010.9 1010.9 4.2
03/07:30am 8.2 5.8 7.0 92 0.6 NNE 9 13 5 7 1010.9 1010.9 4.2
03/07:00am 7.8 5.3 6.7 93 0.5 NE 9 11 5 6 1010.8 1010.8 4.2
03/06:30am 7.4 5.8 6.3 93 0.5 NNW 4 7 2 4 1010.9 1010.9 4.0
03/06:00am 7.1 5.1 6.2 94 0.4 SSE 6 9 3 5 1010.8 1010.8 4.0
03/05:30am 6.8 4.5 5.7 93 0.5 N 7 9 4 5 1010.7 1010.7 4.0
03/05:00am 6.7 3.6 5.7 93 0.4 N 11 11 6 6 1010.9 1010.9 4.0
03/04:30am 7.4 6.1 6.2 92 0.5 N 2 7 1 4 1011.2 1011.2 4.0
03/04:00am 7.8 5.3 6.4 91 0.6 N 9 11 5 6 1011.3 1011.3 4.0
03/03:30am 8.8 5.7 7.4 91 0.7 N 13 19 7 10 1011.7 1011.7 4.0
03/03:00am 8.8 6.8 7.3 90 0.7 N 7 9 4 5 1012.1 1012.1 4.0
03/02:30am 9.1 6.8 7.4 89 0.8 NNE 9 11 5 6 1012.3 1012.3 4.0
03/02:00am 9.3 8.6 6.9 85 1.1 CALM 0 4 0 2 1012.8 1012.8 3.4
03/01:30am 9.2 6.7 6.6 84 1.2 S 9 11 5 6 1013.1 1013.1 3.4
03/01:00am 9.4 5.5 7.0 85 1.1 S 17 22 9 12 1013.5 1013.5 3.4
03/12:42am 9.4 4.1 7.0 85 1.1 S 24 32 13 17 1013.8 1013.8 3.4
03/12:30am 9.5 5.1 7.6 88 0.9 S 20 35 11 19 1013.8 1013.8 3.4
03/12:19am 9.6 5.5 8.0 90 0.8 S 19 24 10 13 1014.0 1014.0 3.4
03/12:00am 9.8 5.6 8.2 90 0.8 S 20 26 11 14 1014.0 1014.0 3.4
 
Date/Time
WST
Temp
°C
App
Temp
°C
Dew
Point
°C
Rel
Hum
%
Delta-T
°C
Wind Press
QNH
hPa
Press
MSL
hPa
Rain since
9am
mm
Dir  Spd
km/h
Gust
km/h
Spd
kts
Gust
kts
02/11:30pm 9.9 6.0 8.5 91 0.7 S 19 24 10 13 1014.2 1014.2 3.4
02/11:11pm 10.0 5.1 8.6 91 0.7 S 24 32 13 17 1014.0 1014.0 3.2
02/11:00pm 10.1 4.5 8.7 91 0.7 SSW 28 37 15 20 1014.2 1014.2 3.2
02/10:48pm 10.4 4.2 9.2 92 0.6 SSW 32 43 17 23 1014.0 1014.0 3.2
02/10:30pm 11.2 7.1 10.0 92 0.6 SW 22 32 12 17 1014.0 1014.0 2.6
02/10:23pm 11.7 7.7 10.4 92 0.7 SSW 22 32 12 17 1014.1 1014.1 1.2
02/10:14pm 11.9 9.9 10.3 90 0.8 SSW 11 24 6 13 1013.7 1013.7 0.2
02/10:00pm 11.9 11.3 10.3 90 0.8 NW 4 7 2 4 1013.8 1013.8 0.0
02/09:30pm 11.7 10.4 9.9 89 0.9 NNW 7 11 4 6 1014.1 1014.1 0.0
02/09:00pm 11.2 9.4 9.6 90 0.8 NNW 9 13 5 7 1014.3 1014.3 0.0
02/08:30pm 10.7 8.7 8.6 87 1.0 NNW 9 11 5 6 1014.4 1014.4 0.0
02/08:00pm 12.5 10.4 9.7 83 1.4 NNE 11 13 6 7 1014.6 1014.6 0.0
02/07:30pm 12.7 11.0 9.9 83 1.4 N 9 11 5 6 1015.0 1014.9 0.0
02/07:00pm 12.6 10.9 10.0 84 1.3 NNW 9 11 5 6 1015.2 1015.1 0.0
02/06:30pm 13.8 12.3 10.4 80 1.8 W 9 15 5 8 1015.5 1015.4 0.0
02/06:00pm 14.5 12.6 8.9 69 2.8 W 9 11 5 6 1015.6 1015.6 0.0
02/05:30pm 14.7 12.2 8.4 66 3.2 W 11 13 6 7 1015.5 1015.4 0.0
02/05:00pm 16.6 14.2 8.6 59 4.1 W 11 13 6 7 1015.8 1015.8 0.0
02/04:30pm 16.9 12.7 8.3 57 4.4 WSW 20 26 11 14 1015.9 1015.9 0.0
02/04:00pm 17.0 13.4 8.2 56 4.5 WSW 17 20 9 11 1016.1 1016.1 0.0
02/03:30pm 17.1 14.7 8.5 57 4.4 SW 11 17 6 9 1016.2 1016.2 0.0
02/03:00pm 17.8 15.3 8.1 53 5.0 SSW 11 17 6 9 1016.3 1016.3 0.0
02/02:30pm 17.9 15.4 6.7 48 5.6 SW 9 15 5 8 1016.7 1016.7 0.0
02/02:00pm 17.6 14.9 7.4 51 5.1 SSW 11 17 6 9 1017.1 1017.1 0.0
02/01:30pm 17.5 15.5 7.0 50 5.2 SW 7 11 4 6 1017.5 1017.5 0.0
02/01:00pm 17.2 14.9 7.3 52 5.0 SW 9 15 5 8 1018.1 1018.1 0.0
02/12:30pm 17.5 15.6 6.7 49 5.4 SW 6 13 3 7 1018.7 1018.7 0.0
02/12:00pm 16.4 14.8 8.6 60 4.0 S 7 11 4 6 1019.3 1019.3 0.0
02/11:30am 15.4 13.6 9.3 67 3.1 S 9 11 5 6 1020.0 1020.0 0.0
02/11:00am 15.1 13.9 9.7 70 2.8 SW 6 9 3 5 1020.5 1020.5 0.0
02/10:30am 14.2 12.9 9.8 75 2.3 SSW 7 9 4 5 1021.0 1021.0 0.0
02/10:00am 13.1 13.1 9.9 81 1.6 CALM 0 0 0 0 1021.4 1021.4 0.0
02/09:30am 11.0 9.2 9.3 89 0.9 SSE 9 11 5 6 1021.6 1021.6 0.0
02/09:00am 9.3 7.7 8.2 93 0.5 WSW 6 7 3 4 1021.6 1021.6 0.0
02/08:30am 7.2 5.2 6.1 93 0.5 SE 6 7 3 4 1021.7 1021.7 0.0
02/08:00am 5.9 3.6 4.9 93 0.4 SE 6 9 3 5 1021.7 1021.7 0.0
02/07:30am 4.2 2.4 3.2 93 0.4 NNE 2 7 1 4 1021.7 1021.7 0.0
02/07:00am 3.7 1.8 2.7 93 0.4 NNE 2 7 1 4 1021.5 1021.5 0.0
02/06:30am 3.2 1.6 2.2 93 0.4 CALM 0 6 0 3 1021.3 1021.3 0.0
02/06:00am 3.1 0.7 2.1 93 0.4 NE 4 7 2 4 1021.5 1021.5 0.0
02/05:30am 3.9 1.2 2.9 93 0.4 NE 6 7 3 4 1021.5 1021.5 0.0
02/05:15am 4.0 1.2 3.0 93 0.4 NE 7 9 4 5 1021.4 1021.4 0.0
02/05:00am 4.3 1.7 3.1 92 0.5 NE 6 7 3 4 1021.5 1021.5 0.0
02/04:56am 4.4 1.8 3.2 92 0.5 NE 6 6 3 3 1021.5 1021.5 0.0
02/04:44am 5.2 3.5 4.0 92 0.5 NE 2 7 1 4 1021.4 1021.4 0.0
02/04:42am 5.2 3.5 4.2 93 0.4 NE 2 7 1 4 1021.4 1021.4 0.0
02/04:30am 5.1 3.8 3.9 92 0.5 CALM 0 0 0 0 1021.7 1021.7 0.0
02/04:07am 4.9 3.5 3.7 92 0.5 CALM 0 0 0 0 1021.8 1021.8 0.0
02/04:01am 4.7 3.3 3.5 92 0.5 CALM 0 0 0 0 1021.9 1021.9 0.0
02/04:00am 4.7 3.3 3.5 92 0.5 CALM 0 0 0 0 1021.9 1021.9 0.0
02/03:30am 5.1 3.7 3.8 91 0.5 CALM 0 0 0 0 1022.1 1022.1 0.0
02/03:00am 6.1 5.0 4.9 92 0.5 CALM 0 4 0 2 1022.3 1022.3 0.0
02/02:30am 6.1 5.0 4.9 92 0.5 CALM 0 4 0 2 1022.6 1022.6 0.0
02/02:00am 6.8 5.8 5.4 91 0.6 CALM 0 0 0 0 1022.7 1022.7 0.0
02/01:30am 6.5 5.0 5.1 91 0.6 NE 2 6 1 3 1022.9 1022.9 0.0
02/01:00am 6.5 5.3 4.8 89 0.7 CALM 0 0 0 0 1023.1 1023.1 0.0
02/12:30am 8.5 6.7 7.1 91 0.7 SSE 6 6 3 3 1023.4 1023.4 0.0
02/12:00am 8.7 6.9 7.2 90 0.7 SSE 6 7 3 4 1023.7 1023.7 0.0
 
Date/Time
WST
Temp
°C
App
Temp
°C
Dew
Point
°C
Rel
Hum
%
Delta-T
°C
Wind Press
QNH
hPa
Press
MSL
hPa
Rain since
9am
mm
Dir  Spd
km/h
Gust
km/h
Spd
kts
Gust
kts
01/11:30pm 8.6 7.9 6.9 89 0.8 CALM 0 0 0 0 1023.8 1023.8 0.0
01/11:00pm 8.8 8.1 7.1 89 0.8 CALM 0 0 0 0 1024.0 1024.0 0.0
01/10:30pm 9.5 9.0 7.8 89 0.8 CALM 0 0 0 0 1024.2 1024.2 0.0
01/10:00pm 9.5 7.8 7.4 87 1.0 E 6 7 3 4 1024.4 1024.4 0.0
01/09:30pm 11.1 10.1 7.4 78 1.8 E 2 7 1 4 1024.4 1024.4 0.0
01/09:00pm 12.1 10.5 8.8 80 1.6 SE 7 9 4 5 1024.5 1024.5 0.0
01/08:30pm 12.1 10.7 8.9 81 1.6 SSE 6 9 3 5 1024.7 1024.7 0.0
01/08:00pm 12.1 10.1 8.8 80 1.6 S 9 11 5 6 1024.8 1024.8 0.0
01/07:30pm 13.8 11.6 9.5 75 2.2 SSE 11 15 6 8 1024.5 1024.5 0.0
01/07:00pm 13.4 10.7 8.9 74 2.3 SSE 13 15 7 8 1024.3 1024.3 0.0
01/06:30pm 13.7 11.9 7.9 68 2.9 SE 7 9 4 5 1024.0 1024.0 0.0
01/06:00pm 15.3 13.5 8.1 62 3.6 SE 7 9 4 5 1023.5 1023.5 0.0
01/05:30pm 16.0 14.4 8.7 62 3.7 SSE 7 11 4 6 1023.3 1023.3 0.0
01/05:00pm 17.1 16.1 10.2 64 3.6 S 6 7 3 4 1023.3 1023.3 0.0
01/04:30pm 17.3 15.8 9.0 58 4.3 S 7 9 4 5 1023.2 1023.2 0.0
01/04:00pm 18.2 16.9 9.8 58 4.4 S 7 11 4 6 1023.1 1023.1 0.0
01/03:30pm 17.2 15.8 9.4 60 4.1 SSW 7 11 4 6 1023.2 1023.2 0.0
01/03:00pm 17.9 17.4 9.5 58 4.4 S 2 7 1 4 1023.1 1023.1 0.0
01/02:30pm 17.2 15.8 9.4 60 4.1 SSW 7 9 4 5 1023.4 1023.4 0.0
01/02:00pm 17.7 16.2 10.6 63 3.8 SW 9 13 5 7 1023.6 1023.6 0.0
01/01:30pm 16.7 16.1 10.3 66 3.4 S 4 7 2 4 1024.1 1024.1 0.0
01/01:00pm 16.1 14.4 9.8 66 3.3 SSE 9 17 5 9 1024.7 1024.7 0.0
01/12:30pm 16.3 13.7 9.5 64 3.5 NNE 13 19 7 10 1025.3 1025.3 0.0
01/12:00pm 16.5 15.1 9.4 63 3.7 E 7 11 4 6 1026.0 1026.0 0.0
01/11:30am 16.9 15.3 10.1 64 3.6 NNE 9 15 5 8 1026.4 1026.4 0.0
01/11:00am 16.3 14.0 10.4 68 3.1 ENE 13 20 7 11 1026.6 1026.6 0.0
01/10:30am 15.3 13.2 9.9 70 2.8 E 11 17 6 9 1026.6 1026.6 0.0
01/10:00am 14.5 12.5 10.3 76 2.2 E 11 15 6 8 1026.9 1026.9 0.0
01/09:30am 12.8 11.6 10.3 85 1.3 S 7 9 4 5 1027.1 1027.1 0.0
01/09:26am 12.4 11.3 9.8 84 1.3 S 6 7 3 4 1027.1 1027.1 0.0
01/09:06am 11.9 10.2 9.8 87 1.1 SSW 9 13 5 7 1027.0 1027.0 0.0
01/09:00am 11.7 9.5 9.4 86 1.2 SSW 11 13 6 7 1027.0 1027.0 0.0
01/08:31am 12.1 10.7 9.7 85 1.2 SE 7 11 4 6 1026.7 1026.7 0.0
01/08:30am 11.9 10.5 9.5 85 1.2 SE 7 11 4 6 1026.7 1026.7 0.0
01/08:00am 11.2 9.5 9.8 91 0.7 ESE 9 13 5 7 1026.3 1026.3 0.0
01/07:49am 10.5 8.7 9.3 92 0.6 ESE 9 17 5 9 1026.0 1026.0 0.0
01/07:30am 8.1 6.3 7.0 93 0.5 NE 6 13 3 7 1025.8 1025.8 0.0
01/07:00am 7.8 5.9 6.7 93 0.5 SE 6 9 3 5 1025.7 1025.7 0.0
01/06:30am 6.3 5.2 5.1 92 0.5 CALM 0 6 0 3 1025.3 1025.3 0.0
01/06:00am 8.1 6.6 6.7 91 0.6 SE 4 7 2 4 1025.0 1025.0 0.0
01/05:30am 8.1 7.4 6.9 92 0.6 CALM 0 6 0 3 1024.8 1024.8 0.0

Latest Capital City Observations: Canberra | Sydney | Melbourne | Brisbane | Adelaide | Perth | Hobart | Darwin

Other formats

Comma delimited format used in spreadsheet applications
http://www.bom.gov.au/fwo/IDW60901/IDW60901.94612.axf

JavaScript Object Notation format (JSON) in row-major order
http://www.bom.gov.au/fwo/IDW60901/IDW60901.94612.json

Data quality

Most of these data are generated automatically and are frequently updated. Quality checks on data are not normally performed. It is possible for incorrect values to appear. Refer to information at About Latest Weather Observations and please check the disclaimer before using these data.